logo
Search for airport 
image banner adimage banner adimage banner ad
image banner ad

EHTL - Terlet

Located in Arnhem, Netherlands

ICAO - EHTL, IATA -

Data provided by Airmate  

General information

Coordinates: N52°3'26" E5°55'28"
Elevation is 276 feet MSL.
Magnetic variation is 1.8895° East
View others Airports in Gelderland

Operational data

Special qualification required
Current time UTC:
Current local time:
Weather at : EHDL - Deelen ( 4 km )
METAR: EHDL 150855Z AUTO 22017KT 160V290 9999 BKN023 BKN027 OVC031 10/05 Q1007 WHT
View NOTAMs / SUP AIP / TFR affecting this airport [VIEW]
Communications frequencies: [VIEW]

Runways:

RWY identifierQFULength (ft)Width (ft)SurfaceLDA (ft)
04L4000500grass
22R4000500grass
04C4100700grass
22C4100700grass
04R4100700grass
22L4100700grass
123600560grass
303600560grass
14L4500910grass
32R4500910grass
14R4500910grass
32L4500910grass

Airport contact information

Address: Arnhem Netherlands

Satellite view of EHTL